| time (UTC) | temp C | wind direction | speed KPH | gust KPH | rain 1hr cm | rain 24hr cm | rain mn cm | humidity % | barometer mb |
| 20260906060053 | 21 | 282 | 0.0 | 0.0 | 0.00 | 0.00 | 0.00 | 75 | 1012.2 |
| 20260906054553 | 21 | 282 | 0.0 | 0.0 | 0.00 | 0.00 | 0.00 | 75 | 1012.2 |
| 20260906053050 | 21 | 282 | 0.0 | 1.6 | 0.00 | 0.00 | 0.00 | 74 | 1012.4 |
| 20260906051559 | 21 | 283 | 0.0 | 0.0 | 0.00 | 0.00 | 0.00 | 74 | 1012.4 |
| 20260906050101 | 21 | 282 | 0.0 | 0.0 | 0.00 | 0.00 | 0.00 | 73 | 1012.7 |
| 20260906044551 | 21 | 282 | 0.0 | 3.2 | 0.00 | 0.00 | 0.00 | 73 | 1012.7 |
| 20260906043053 | 21 | 283 | 0.0 | 1.6 | 0.00 | 0.00 | 0.00 | 72 | 1012.7 |
| 20260906041544 | 21 | 282 | 0.0 | 1.6 | 0.00 | 0.00 | 0.00 | 71 | 1012.8 |
| 20260906040043 | 22 | 282 | 0.0 | 1.6 | 0.00 | 0.00 | 0.00 | 70 | 1013.0 |
| 20260906034605 | 22 | 283 | 0.0 | 3.2 | 0.00 | 0.00 | 0.00 | 69 | 1013.0 |
| 20260906033044 | 22 | 282 | 0.0 | 1.6 | 0.00 | 0.00 | 0.00 | 68 | 1013.2 |
| 20260906031547 | 22 | 282 | 0.0 | 1.6 | 0.00 | 0.00 | 0.00 | 68 | 1013.1 |
| 20260906030043 | 22 | 282 | 0.0 | 0.0 | 0.00 | 0.00 | 0.00 | 67 | 1013.1 |
| 20260906024542 | 22 | 282 | 0.0 | 0.0 | 0.00 | 0.00 | 0.00 | 66 | 1013.2 |
| 20260906023040 | 22 | 282 | 0.0 | 0.0 | 0.00 | 0.00 | 0.00 | 67 | 1012.8 |
| 20260906021538 | 22 | 282 | 0.0 | 1.6 | 0.00 | 0.00 | 0.00 | 66 | 1012.5 |
| 20260906020037 | 22 | 282 | 0.0 | 3.2 | 0.00 | 0.00 | 0.00 | 65 | 1012.5 |
| 20260906014536 | 22 | 282 | 0.0 | 1.6 | 0.00 | 0.00 | 0.00 | 65 | 1012.3 |
| 20260906013055 | 22 | 283 | 0.0 | 1.6 | 0.00 | 0.00 | 0.00 | 64 | 1012.3 |
| 20260906011545 | 22 | 283 | 0.0 | 1.6 | 0.00 | 0.00 | 0.00 | 65 | 1012.3 |
| 20260906010036 | 23 | 282 | 0.0 | 0.0 | 0.00 | 0.00 | 0.00 | 64 | 1012.3 |
| 20260906004538 | 23 | 282 | 0.0 | 1.6 | 0.00 | 0.00 | 0.00 | 64 | 1012.1 |
| 20260906003037 | 23 | 282 | 0.0 | 0.0 | 0.00 | 0.00 | 0.00 | 64 | 1012.1 |
| 20260906001535 | 23 | 282 | 0.0 | 1.6 | 0.00 | 0.00 | 0.00 | 64 | 1011.9 |
| 20260906000035 | 24 | 282 | 0.0 | 0.0 | 0.00 | 0.00 | 0.00 | 64 | 1011.7 |
| 20260905234534 | 24 | 282 | 0.0 | 1.6 | 0.00 | 0.00 | 0.00 | 63 | 1011.6 |
| 20260905233040 | 25 | 282 | 0.0 | 1.6 | 0.00 | 0.00 | 0.00 | 62 | 1011.5 |
| 20260905231533 | 25 | 295 | 0.0 | 4.8 | 0.00 | 0.00 | 0.00 | 62 | 1011.2 |
| 20260905230034 | 25 | 300 | 1.6 | 4.8 | 0.00 | 0.00 | 0.00 | 61 | 1011.3 |
| 20260905224530 | 26 | 294 | 1.6 | 6.4 | 0.00 | 0.00 | 0.00 | 59 | 1011.3 |
| 20260905223030 | 25 | 308 | 1.6 | 9.7 | 0.00 | 0.00 | 0.00 | 59 | 1011.0 |
| 20260905221527 | 25 | 303 | 3.2 | 6.4 | 0.00 | 0.00 | 0.00 | 59 | 1011.0 |
| 20260905220024 | 25 | 296 | 3.2 | 8.0 | 0.00 | 0.00 | 0.00 | 60 | 1011.3 |
| 20260905214523 | 25 | 286 | 3.2 | 6.4 | 0.00 | 0.00 | 0.00 | 59 | 1011.3 |
| 20260905213020 | 24 | 253 | 1.6 | 6.4 | 0.00 | 0.00 | 0.00 | 60 | 1011.5 |
| 20260905211553 | 24 | 293 | 3.2 | 6.4 | 0.00 | 0.00 | 0.00 | 59 | 1011.6 |
| 20260905210058 | 22 | 273 | 1.6 | 6.4 | 0.00 | 0.00 | 0.00 | 63 | 1012.0 |
| 20260905204554 | 21 | 232 | 0.0 | 4.8 | 0.00 | 0.00 | 0.00 | 64 | 1012.1 |
| 20260905203104 | 21 | 232 | 0.0 | 6.4 | 0.00 | 0.00 | 0.00 | 65 | 1012.4 |
| 20260905200056 | 22 | 272 | 3.2 | 8.0 | 0.00 | 0.00 | 0.00 | 63 | 1012.1 |
| 20260905194550 | 22 | 299 | 0.0 | 4.8 | 0.00 | 0.00 | 0.00 | 63 | 1011.8 |
| 20260905193048 | 22 | 277 | 8.0 | 20.9 | 0.00 | 0.00 | 0.00 | 62 | 1012.6 |
| 20260905190035 | 29 | 281 | 16.1 | 43.5 | 0.15 | 0.15 | 0.15 | 52 | 1012.0 |
| 20260905184540 | 34 | 346 | 1.6 | 6.4 | 0.00 | 0.00 | 0.00 | 36 | 1011.3 |
| 20260905181530 | 35 | 209 | 1.6 | 6.4 | 0.00 | 0.00 | 0.00 | 38 | 1011.4 |
| 20260905180028 | 34 | 348 | 1.6 | 6.4 | 0.00 | 0.00 | 0.00 | 38 | 1011.9 |
| 20260905174526 | 35 | 288 | 4.8 | 19.3 | 0.00 | 0.00 | 0.00 | 37 | 1012.3 |
| 20260905171534 | 34 | 317 | 8.0 | 16.1 | 0.00 | 0.00 | 0.00 | 39 | 1012.9 |
| 20260905170025 | 34 | 231 | 6.4 | 14.5 | 0.00 | 0.00 | 0.00 | 38 | 1013.2 |
| 20260905164519 | 33 | 263 | 0.0 | 6.4 | 0.00 | 0.00 | 0.00 | 42 | 1013.4 |
| 20260905161516 | 33 | 301 | 4.8 | 12.9 | 0.00 | 0.00 | 0.00 | 45 | 1013.7 |
| 20260905160013 | 32 | 273 | 3.2 | 8.0 | 0.00 | 0.00 | 0.00 | 46 | 1013.8 |
| 20260905154511 | 32 | 300 | 3.2 | 8.0 | 0.00 | 0.00 | 0.00 | 49 | 1013.9 |
| 20260905151504 | 30 | 273 | 4.8 | 12.9 | 0.00 | 0.00 | 0.00 | 52 | 1013.9 |
| 20260905150004 | 30 | 300 | 4.8 | 9.7 | 0.00 | 0.00 | 0.00 | 54 | 1014.0 |
| 20260905144609 | 30 | 283 | 3.2 | 11.3 | 0.00 | 0.00 | 0.00 | 56 | 1014.0 |
| 20260905141557 | 28 | 254 | 3.2 | 11.3 | 0.00 | 0.00 | 0.00 | 58 | 1014.2 |
| 20260905140057 | 28 | 281 | 1.6 | 11.3 | 0.00 | 0.00 | 0.00 | 59 | 1014.2 |
| 20260905134603 | 27 | 241 | 0.0 | 11.3 | 0.00 | 0.00 | 0.00 | 59 | 1014.1 |
| 20260905131553 | 26 | 218 | 0.0 | 4.8 | 0.00 | 0.00 | 0.00 | 60 | 1014.3 |
| 20260905130053 | 25 | 221 | 1.6 | 6.4 | 0.00 | 0.00 | 0.00 | 61 | 1014.3 |
| 20260905124552 | 25 | 221 | 1.6 | 4.8 | 0.00 | 0.00 | 0.00 | 62 | 1014.3 |
| 20260905121552 | 23 | 221 | 0.0 | 0.0 | 0.00 | 0.00 | 0.00 | 64 | 1014.2 |
| 20260905120054 | 23 | 221 | 0.0 | 0.0 | 0.00 | 0.00 | 0.00 | 65 | 1014.3 |
| 20260905114603 | 23 | 221 | 0.0 | 0.0 | 0.00 | 0.00 | 0.00 | 65 | 1014.3 |
| 20260905111621 | 23 | 221 | 0.0 | 0.0 | 0.00 | 0.00 | 0.00 | 64 | 1013.7 |
| 20260905110055 | 23 | 221 | 0.0 | 1.6 | 0.00 | 0.00 | 0.00 | 64 | 1013.3 |
| 20260905104607 | 23 | 221 | 0.0 | 1.6 | 0.00 | 0.00 | 0.00 | 64 | 1013.1 |
| 20260905101550 | 24 | 221 | 0.0 | 3.2 | 0.00 | 0.00 | 0.00 | 63 | 1012.8 |
| 20260905100044 | 24 | 221 | 1.6 | 4.8 | 0.00 | 0.00 | 0.00 | 62 | 1012.6 |
| 20260905094641 | 24 | 221 | 1.6 | 4.8 | 0.00 | 0.00 | 0.00 | 62 | 1012.6 |
| 20260905091547 | 24 | 219 | 0.0 | 1.6 | 0.00 | 0.00 | 0.00 | 63 | 1012.9 |
| 20260905090042 | 24 | 219 | 0.0 | 3.2 | 0.00 | 0.00 | 0.00 | 63 | 1012.8 |
| 20260905084555 | 24 | 220 | 0.0 | 0.0 | 0.00 | 0.00 | 0.00 | 64 | 1012.9 |
| 20260905081541 | 24 | 220 | 0.0 | 1.6 | 0.00 | 0.00 | 0.00 | 64 | 1013.1 |
| 20260905080037 | 24 | 220 | 0.0 | 0.0 | 0.00 | 0.00 | 0.00 | 64 | 1013.3 |
| 20260905074536 | 24 | 220 | 0.0 | 0.0 | 0.00 | 0.00 | 0.00 | 64 | 1013.6 |
| 20260905071542 | 25 | 220 | 0.0 | 3.2 | 0.00 | 0.00 | 0.00 | 64 | 1013.6 |
| 20260905070032 | 25 | 220 | 0.0 | 1.6 | 0.00 | 0.00 | 0.00 | 64 | 1013.7 |
| 20260905064529 | 25 | 220 | 0.0 | 1.6 | 0.00 | 0.00 | 0.00 | 64 | 1014.1 |
| 20260905061531 | 26 | 220 | 0.0 | 0.0 | 0.00 | 0.00 | 0.00 | 63 | 1014.3 |